createdAt,value
2022-07-29T00:01:43.565Z,100226.94
2022-07-29T00:04:12.514Z,100230.59
2022-07-29T00:06:41.639Z,100229.78
2022-07-29T00:09:09.643Z,100223.59
2022-07-29T00:11:37.902Z,100228.06
2022-07-29T00:14:06.036Z,100234.38
2022-07-29T00:16:33.999Z,100233.03
2022-07-29T00:19:05.344Z,100240.81
2022-07-29T00:21:35.920Z,100236.41
2022-07-29T00:24:04.436Z,100245.44
2022-07-29T00:26:33.855Z,100258.19
2022-07-29T00:29:32.488Z,100235.06
2022-07-29T00:31:52.238Z,100247.34
2022-07-29T00:34:39.058Z,100246.69
2022-07-29T00:37:07.841Z,100243.50
2022-07-29T00:39:36.016Z,100244.19
2022-07-29T00:42:06.128Z,100254.69
2022-07-29T00:44:39.360Z,100250.81
2022-07-29T00:47:07.459Z,100256.94
2022-07-29T00:49:36.418Z,100262.44
2022-07-29T00:52:05.946Z,100253.19
2022-07-29T00:54:34.787Z,100255.28
2022-07-29T00:57:03.442Z,100266.34
2022-07-29T00:59:35.436Z,100263.28
2022-07-29T01:02:04.933Z,100276.28
2022-07-29T01:04:33.428Z,100276.06
2022-07-29T01:07:04.718Z,100265.25
2022-07-29T01:09:45.367Z,100267.31
2022-07-29T01:12:18.739Z,100269.84
2022-07-29T01:14:49.451Z,100275.66
2022-07-29T01:17:56.573Z,100271.53
2022-07-29T01:20:46.401Z,100279.09
2022-07-29T01:23:36.054Z,100268.78
2022-07-29T01:26:06.845Z,100280.69
2022-07-29T01:28:56.873Z,100272.53
2022-07-29T01:31:40.287Z,100281.22
2022-07-29T01:34:45.585Z,100272.88
2022-07-29T01:37:28.809Z,100270.22
2022-07-29T01:39:59.891Z,100265.72
2022-07-29T01:42:46.789Z,100277.13
2022-07-29T01:45:27.941Z,100270.87
2022-07-29T01:47:59.553Z,100278.28
2022-07-29T01:50:37.477Z,100276.75
2022-07-29T01:53:10.196Z,100271.00
2022-07-29T01:55:45.769Z,100265.97
2022-07-29T01:58:19.036Z,100263.84
2022-07-29T02:00:49.803Z,100266.97
2022-07-29T02:03:20.247Z,100266.66
2022-07-29T02:05:50.888Z,100274.22
2022-07-29T02:08:21.233Z,100269.53
2022-07-29T02:10:51.261Z,100285.44
2022-07-29T02:13:22.861Z,100284.47
2022-07-29T02:15:53.392Z,100286.28
2022-07-29T02:18:25.491Z,100283.66
2022-07-29T02:20:58.274Z,100285.53
2022-07-29T02:23:27.772Z,100291.97
2022-07-29T02:25:58.021Z,100289.28
2022-07-29T02:28:31.347Z,100292.56
2022-07-29T02:31:03.585Z,100300.00
2022-07-29T02:33:33.163Z,100296.31
2022-07-29T02:36:03.116Z,100298.53
2022-07-29T02:38:51.819Z,100302.78
2022-07-29T02:41:30.639Z,100299.62
2022-07-29T02:44:06.642Z,100306.28
2022-07-29T02:46:37.376Z,100319.41
2022-07-29T02:49:40.938Z,100318.41
2022-07-29T02:52:31.048Z,100323.41
2022-07-29T02:55:27.879Z,100316.66
2022-07-29T02:58:05.005Z,100316.97
2022-07-29T03:00:39.496Z,100315.50
2022-07-29T03:03:13.794Z,100321.03
2022-07-29T03:05:42.670Z,100317.44
2022-07-29T03:08:16.273Z,100326.97
2022-07-29T03:10:46.950Z,100318.66
2022-07-29T03:13:16.003Z,100325.28
2022-07-29T03:15:46.232Z,100326.16
2022-07-29T03:18:15.777Z,100323.09
2022-07-29T03:20:44.776Z,100322.37
2022-07-29T03:23:12.835Z,100317.84
2022-07-29T03:25:40.809Z,100322.25
2022-07-29T03:28:10.073Z,100321.97
2022-07-29T03:30:38.045Z,100326.50
2022-07-29T03:33:13.284Z,100322.28
2022-07-29T03:35:42.571Z,100321.22
2022-07-29T03:38:10.504Z,100318.00
2022-07-29T03:40:50.014Z,100321.91
2022-07-29T03:43:20.023Z,100320.62
2022-07-29T03:45:51.700Z,100329.13
2022-07-29T03:48:23.801Z,100329.25
2022-07-29T03:50:52.485Z,100326.19
2022-07-29T03:53:20.772Z,100333.16
2022-07-29T03:55:53.997Z,100330.78
2022-07-29T03:58:23.860Z,100326.50
2022-07-29T04:00:52.332Z,100330.72
2022-07-29T04:03:21.097Z,100326.97
2022-07-29T04:06:07.640Z,100338.09
2022-07-29T04:08:54.431Z,100333.19
2022-07-29T04:11:22.419Z,100333.84
2022-07-29T04:13:50.756Z,100329.88
2022-07-29T04:16:18.727Z,100330.34
2022-07-29T04:18:46.599Z,100329.22
2022-07-29T04:21:14.966Z,100335.87
2022-07-29T04:23:53.102Z,100335.81
2022-07-29T04:26:22.334Z,100334.50
2022-07-29T04:28:50.446Z,100346.19
2022-07-29T04:31:22.424Z,100332.50
2022-07-29T04:33:53.903Z,100333.72
2022-07-29T04:36:29.057Z,100330.03
2022-07-29T04:38:58.221Z,100335.03
2022-07-29T04:41:30.840Z,100338.13
2022-07-29T04:44:12.373Z,100344.19
2022-07-29T04:46:40.536Z,100353.56
2022-07-29T04:51:54.309Z,100353.78
2022-07-29T04:54:22.636Z,100354.63
2022-07-29T04:59:18.034Z,100341.69
2022-07-29T05:02:04.677Z,100350.72
2022-07-29T05:04:32.618Z,100338.41
2022-07-29T05:07:00.923Z,100343.13
2022-07-29T05:09:28.956Z,100344.38
2022-07-29T05:11:56.818Z,100341.91
2022-07-29T05:14:25.359Z,100335.94
2022-07-29T05:16:54.286Z,100350.09
2022-07-29T05:19:22.165Z,100341.03
2022-07-29T05:21:51.198Z,100339.66
2022-07-29T05:24:19.666Z,100342.66
2022-07-29T05:26:47.908Z,100330.78
2022-07-29T05:29:43.006Z,100340.53
2022-07-29T05:32:05.176Z,100339.13
2022-07-29T05:34:33.687Z,100344.88
2022-07-29T05:37:03.889Z,100338.28
2022-07-29T05:39:48.570Z,100333.19
2022-07-29T05:42:19.005Z,100338.69
2022-07-29T05:44:46.916Z,100341.16
2022-07-29T05:47:14.983Z,100345.22
2022-07-29T05:49:43.233Z,100349.06
2022-07-29T05:52:11.194Z,100349.69
2022-07-29T05:54:39.088Z,100344.06
2022-07-29T05:57:07.468Z,100337.78
2022-07-29T05:59:38.883Z,100335.34
2022-07-29T06:02:07.407Z,100340.28
2022-07-29T06:04:35.877Z,100336.06
2022-07-29T06:07:03.898Z,100334.59
2022-07-29T06:09:32.060Z,100329.59
2022-07-29T06:12:00.314Z,100340.12
2022-07-29T06:14:29.584Z,100342.69
2022-07-29T06:16:57.809Z,100326.44
2022-07-29T06:19:26.141Z,100330.84
2022-07-29T06:21:54.045Z,100325.31
2022-07-29T06:24:21.924Z,100328.25
2022-07-29T06:26:50.216Z,100333.81
2022-07-29T06:29:18.428Z,100329.19
2022-07-29T06:31:46.355Z,100325.16
2022-07-29T06:34:14.817Z,100325.16
2022-07-29T06:36:43.158Z,100329.19
2022-07-29T06:39:11.668Z,100337.03
2022-07-29T06:41:40.694Z,100334.97
2022-07-29T06:44:10.714Z,100319.13
2022-07-29T06:46:38.805Z,100331.09
2022-07-29T06:49:07.225Z,100327.50
2022-07-29T06:51:35.263Z,100332.25
2022-07-29T06:54:03.839Z,100329.94
2022-07-29T06:56:38.559Z,100336.84
2022-07-29T06:59:09.670Z,100342.41
2022-07-29T07:01:39.347Z,100339.81
2022-07-29T07:04:07.681Z,100334.53
2022-07-29T07:06:35.884Z,100341.41
2022-07-29T07:09:04.800Z,100337.81
2022-07-29T07:11:32.767Z,100340.84
2022-07-29T07:14:03.368Z,100347.53
2022-07-29T07:16:33.221Z,100342.03
2022-07-29T07:19:01.669Z,100340.81
2022-07-29T07:21:30.618Z,100340.34
2022-07-29T07:24:00.274Z,100357.81
2022-07-29T07:26:28.815Z,100352.59
2022-07-29T07:28:56.815Z,100345.34
2022-07-29T07:31:25.230Z,100347.69
2022-07-29T07:33:54.752Z,100345.91
2022-07-29T07:36:23.573Z,100347.25
2022-07-29T07:38:52.056Z,100348.75
2022-07-29T07:41:20.038Z,100348.03
2022-07-29T07:43:48.221Z,100359.19
2022-07-29T07:46:17.393Z,100336.22
2022-07-29T07:48:45.742Z,100352.50
2022-07-29T07:51:13.899Z,100346.47
2022-07-29T07:53:42.331Z,100347.09
2022-07-29T07:56:11.851Z,100356.38
2022-07-29T07:58:40.509Z,100356.19
2022-07-29T08:01:10.311Z,100354.44
2022-07-29T08:03:39.224Z,100363.53
2022-07-29T08:06:07.534Z,100355.97
2022-07-29T08:08:35.620Z,100359.00
2022-07-29T08:11:09.203Z,100357.28
2022-07-29T08:13:39.113Z,100357.25
2022-07-29T08:16:14.502Z,100348.97
2022-07-29T08:18:44.263Z,100352.41
2022-07-29T08:21:15.161Z,100356.69
2022-07-29T08:26:37.439Z,100372.81
2022-07-29T08:29:05.360Z,100347.31
2022-07-29T08:31:33.332Z,100364.12
2022-07-29T08:34:01.711Z,100359.00
2022-07-29T08:36:29.837Z,100358.28
2022-07-29T08:38:58.346Z,100354.97
2022-07-29T08:41:27.699Z,100336.63
2022-07-29T08:43:55.943Z,100347.78
2022-07-29T08:46:24.231Z,100346.63
2022-07-29T08:48:52.691Z,100345.19
2022-07-29T08:51:22.226Z,100347.16
2022-07-29T08:53:51.563Z,100342.59
2022-07-29T08:56:20.922Z,100338.06
2022-07-29T08:58:51.815Z,100344.12
2022-07-29T09:01:35.688Z,100337.25
2022-07-29T09:04:07.375Z,100337.81
2022-07-29T09:06:39.366Z,100357.31
2022-07-29T09:09:09.168Z,100349.31
2022-07-29T09:11:37.785Z,100331.09
2022-07-29T09:14:05.830Z,100335.50
2022-07-29T09:16:57.659Z,100347.12
2022-07-29T09:22:31.598Z,100351.72
2022-07-29T09:24:59.972Z,100343.97
2022-07-29T09:27:27.994Z,100351.12
2022-07-29T09:30:07.516Z,100360.19
2022-07-29T09:32:56.262Z,100357.75
2022-07-29T09:35:26.275Z,100361.97
2022-07-29T09:37:54.977Z,100354.12
2022-07-29T09:40:28.725Z,100361.66
2022-07-29T09:43:01.254Z,100362.97
2022-07-29T09:45:35.059Z,100362.37
2022-07-29T09:48:22.271Z,100360.13
2022-07-29T09:50:51.075Z,100366.72
2022-07-29T09:53:34.606Z,100366.37
2022-07-29T09:56:02.770Z,100373.47
2022-07-29T09:58:31.872Z,100369.72
2022-07-29T10:01:29.988Z,100368.09
2022-07-29T10:03:59.152Z,100354.00
2022-07-29T10:07:04.767Z,100360.88
2022-07-29T10:09:34.670Z,100354.06
2022-07-29T10:12:14.983Z,100352.97
2022-07-29T10:14:44.310Z,100349.81
2022-07-29T10:17:12.571Z,100340.97
2022-07-29T10:19:40.891Z,100343.84
2022-07-29T10:22:11.273Z,100342.66
2022-07-29T10:24:41.485Z,100339.16
2022-07-29T10:27:10.718Z,100333.22
2022-07-29T10:29:38.715Z,100343.56
2022-07-29T10:32:26.320Z,100337.88
2022-07-29T10:35:03.464Z,100334.72
2022-07-29T10:38:01.895Z,100334.12
2022-07-29T10:41:19.620Z,100342.84
2022-07-29T10:43:51.369Z,100342.81
2022-07-29T10:46:21.541Z,100334.50
2022-07-29T10:49:19.204Z,100340.28
2022-07-29T10:54:54.911Z,100347.94
2022-07-29T10:57:52.999Z,100347.28
2022-07-29T11:00:31.284Z,100348.41
2022-07-29T11:03:00.430Z,100345.63
2022-07-29T11:05:56.813Z,100331.72
2022-07-29T11:08:28.429Z,100341.75
2022-07-29T11:11:29.688Z,100324.47
2022-07-29T11:13:58.386Z,100341.00
2022-07-29T11:16:26.960Z,100331.47
2022-07-29T11:19:13.724Z,100326.69
2022-07-29T11:21:53.466Z,100329.34
2022-07-29T11:24:30.429Z,100329.31
2022-07-29T11:27:18.355Z,100351.84
2022-07-29T11:29:53.636Z,100338.03
2022-07-29T11:32:24.165Z,100337.25
2022-07-29T11:38:28.064Z,100340.88
2022-07-29T11:41:21.977Z,100340.25
2022-07-29T11:43:56.809Z,100349.63
2022-07-29T11:46:45.835Z,100340.50
2022-07-29T11:49:20.083Z,100341.53
2022-07-29T11:51:54.029Z,100344.94
2022-07-29T11:54:57.309Z,100343.69
2022-07-29T11:57:22.477Z,100348.31
2022-07-29T11:59:50.974Z,100349.69
2022-07-29T12:02:48.250Z,100342.59
2022-07-29T12:05:23.950Z,100336.78
2022-07-29T12:07:03.568Z,100335.63
2022-07-29T12:08:14.773Z,100342.16
2022-07-29T12:10:44.590Z,100347.84
2022-07-29T12:13:13.106Z,100350.59
2022-07-29T12:15:45.826Z,100354.91
2022-07-29T12:18:19.481Z,100352.13
2022-07-29T12:21:05.284Z,100353.66
2022-07-29T12:23:35.452Z,100345.34
2022-07-29T12:26:11.128Z,100352.72
2022-07-29T12:28:54.724Z,100356.44
2022-07-29T12:31:42.059Z,100363.41
2022-07-29T12:34:13.748Z,100353.84
2022-07-29T12:36:43.387Z,100350.28
2022-07-29T12:39:12.742Z,100351.16
2022-07-29T12:41:41.082Z,100349.50
2022-07-29T12:44:09.256Z,100353.94
2022-07-29T12:46:37.435Z,100364.28
2022-07-29T12:49:08.097Z,100359.34
2022-07-29T12:51:38.110Z,100356.72
2022-07-29T12:54:12.519Z,100359.44
2022-07-29T12:56:43.608Z,100363.38
2022-07-29T12:59:16.652Z,100348.03
2022-07-29T13:01:45.395Z,100364.56
2022-07-29T13:04:29.116Z,100356.38
2022-07-29T13:07:08.583Z,100347.72
2022-07-29T13:10:13.281Z,100357.44
2022-07-29T13:13:01.153Z,100354.28
2022-07-29T13:15:29.836Z,100342.97
2022-07-29T13:17:57.729Z,100355.87
2022-07-29T13:20:28.869Z,100344.84
2022-07-29T13:23:01.912Z,100356.44
2022-07-29T13:25:31.929Z,100359.19
2022-07-29T13:28:01.192Z,100354.03
2022-07-29T13:30:30.453Z,100358.00
2022-07-29T13:32:58.489Z,100352.94
2022-07-29T13:35:26.962Z,100360.69
2022-07-29T13:37:54.921Z,100361.50
2022-07-29T13:40:23.099Z,100361.72
2022-07-29T13:42:51.642Z,100363.94
2022-07-29T13:45:20.325Z,100353.94
2022-07-29T13:47:49.383Z,100352.56
2022-07-29T13:50:17.958Z,100354.19
2022-07-29T13:52:46.011Z,100358.87
2022-07-29T13:55:13.867Z,100359.91
2022-07-29T13:57:42.086Z,100348.75
2022-07-29T14:00:11.251Z,100348.16
2022-07-29T14:02:39.779Z,100359.28
2022-07-29T14:05:09.030Z,100358.72
2022-07-29T14:07:40.047Z,100362.63
2022-07-29T14:10:09.225Z,100348.47
2022-07-29T14:12:39.176Z,100363.06
2022-07-29T14:15:07.427Z,100361.63
2022-07-29T14:17:36.015Z,100355.50
2022-07-29T14:20:04.670Z,100348.63
2022-07-29T14:22:32.571Z,100336.38
2022-07-29T14:25:03.472Z,100338.75
2022-07-29T14:27:43.634Z,100337.00
2022-07-29T14:30:12.672Z,100338.37
2022-07-29T14:32:40.749Z,100344.94
2022-07-29T14:35:09.419Z,100339.16
2022-07-29T14:37:40.403Z,100328.28
2022-07-29T14:40:10.361Z,100340.06
2022-07-29T14:42:39.180Z,100344.56
2022-07-29T14:45:08.957Z,100345.41
2022-07-29T14:47:38.172Z,100345.34
2022-07-29T14:50:07.694Z,100331.41
2022-07-29T14:52:35.984Z,100333.38
2022-07-29T14:55:05.247Z,100327.34
2022-07-29T14:57:44.801Z,100320.03
2022-07-29T15:00:12.945Z,100325.78
2022-07-29T15:03:00.899Z,100328.25
2022-07-29T15:05:29.343Z,100322.25
2022-07-29T15:07:57.362Z,100324.69
2022-07-29T15:10:25.610Z,100328.22
2022-07-29T15:12:56.072Z,100332.06
2022-07-29T15:15:24.111Z,100335.06
2022-07-29T15:17:52.268Z,100332.88
2022-07-29T15:20:20.945Z,100339.06
2022-07-29T15:22:48.944Z,100330.88
2022-07-29T15:25:17.158Z,100324.84
2022-07-29T15:27:48.873Z,100327.34
2022-07-29T15:30:33.174Z,100320.75
2022-07-29T15:33:04.585Z,100332.09
2022-07-29T15:35:33.141Z,100328.59
2022-07-29T15:38:01.444Z,100331.44
2022-07-29T15:40:29.865Z,100326.97
2022-07-29T15:42:58.626Z,100331.75
2022-07-29T15:45:26.869Z,100339.69
2022-07-29T15:48:00.557Z,100335.59
2022-07-29T15:50:29.164Z,100332.31
2022-07-29T15:52:57.129Z,100333.00
2022-07-29T15:55:25.169Z,100329.44
2022-07-29T15:57:57.183Z,100340.72
2022-07-29T16:00:28.591Z,100341.69
2022-07-29T16:02:57.614Z,100335.66
2022-07-29T16:05:25.751Z,100338.91
2022-07-29T16:07:53.677Z,100339.59
2022-07-29T16:10:22.049Z,100341.81
2022-07-29T16:12:49.961Z,100354.63
2022-07-29T16:15:17.942Z,100361.84
2022-07-29T16:17:46.519Z,100355.97
2022-07-29T16:20:14.569Z,100357.34
2022-07-29T16:22:42.780Z,100352.41
2022-07-29T16:25:11.132Z,100350.38
2022-07-29T16:27:39.011Z,100346.72
2022-07-29T16:30:10.664Z,100351.47
2022-07-29T16:32:40.065Z,100361.78
2022-07-29T16:35:08.633Z,100367.16
2022-07-29T16:37:37.547Z,100374.69
2022-07-29T16:40:07.866Z,100372.13
2022-07-29T16:42:47.752Z,100373.59
2022-07-29T16:45:17.514Z,100375.00
2022-07-29T16:48:07.395Z,100371.78
2022-07-29T16:50:35.668Z,100374.84
2022-07-29T16:53:03.608Z,100372.66
2022-07-29T16:55:31.578Z,100366.00
2022-07-29T16:58:00.267Z,100371.91
2022-07-29T17:00:28.225Z,100373.66
2022-07-29T17:02:56.245Z,100362.47
2022-07-29T17:05:24.679Z,100364.97
2022-07-29T17:07:52.850Z,100366.09
2022-07-29T17:10:22.523Z,100372.63
2022-07-29T17:12:51.001Z,100369.41
2022-07-29T17:15:19.364Z,100373.28
2022-07-29T17:17:55.165Z,100371.81
2022-07-29T17:20:27.004Z,100367.91
2022-07-29T17:22:55.660Z,100378.19
2022-07-29T17:25:24.937Z,100382.03
2022-07-29T17:27:56.397Z,100381.69
2022-07-29T17:30:27.746Z,100383.59
2022-07-29T17:32:55.625Z,100379.06
2022-07-29T17:35:41.879Z,100384.53
2022-07-29T17:38:10.301Z,100386.59
2022-07-29T17:40:38.663Z,100386.94
2022-07-29T17:43:09.595Z,100384.03
2022-07-29T17:45:50.016Z,100390.53
2022-07-29T17:48:37.328Z,100385.31
2022-07-29T17:51:06.008Z,100383.37
2022-07-29T17:53:37.215Z,100385.28
2022-07-29T17:56:06.005Z,100385.28
2022-07-29T17:58:34.601Z,100387.62
2022-07-29T18:01:02.657Z,100389.66
2022-07-29T18:03:31.085Z,100390.47
2022-07-29T18:08:47.846Z,100385.63
2022-07-29T18:11:16.222Z,100375.22
2022-07-29T18:13:44.535Z,100387.62
2022-07-29T18:16:12.547Z,100385.87
2022-07-29T18:18:40.766Z,100396.50
2022-07-29T18:21:09.037Z,100407.13
2022-07-29T18:23:37.183Z,100410.28
2022-07-29T18:26:05.370Z,100412.22
2022-07-29T18:28:33.761Z,100412.19
2022-07-29T18:31:02.985Z,100413.09
2022-07-29T18:33:32.750Z,100420.69
2022-07-29T18:36:06.097Z,100418.19
2022-07-29T18:38:41.544Z,100420.78
2022-07-29T18:41:10.108Z,100419.31
2022-07-29T18:43:38.150Z,100414.91
2022-07-29T18:46:07.010Z,100422.22
2022-07-29T18:48:35.485Z,100424.25
2022-07-29T18:51:08.979Z,100413.63
2022-07-29T18:53:37.863Z,100417.78
2022-07-29T18:56:05.928Z,100417.59
2022-07-29T18:58:33.815Z,100421.22
2022-07-29T19:01:02.637Z,100420.03
2022-07-29T19:03:30.569Z,100427.37
2022-07-29T19:05:58.520Z,100423.44
2022-07-29T19:08:26.978Z,100423.97
2022-07-29T19:10:54.958Z,100422.47
2022-07-29T19:13:22.953Z,100431.56
2022-07-29T19:15:51.355Z,100425.03
2022-07-29T19:18:19.600Z,100423.28
2022-07-29T19:20:47.637Z,100436.00
2022-07-29T19:23:18.907Z,100428.09
2022-07-29T19:26:05.747Z,100432.41
2022-07-29T19:28:55.684Z,100429.03
2022-07-29T19:31:23.867Z,100429.03
2022-07-29T19:33:52.269Z,100429.97
2022-07-29T19:36:20.171Z,100439.78
2022-07-29T19:38:48.142Z,100437.56
2022-07-29T19:41:17.427Z,100435.88
2022-07-29T19:43:49.712Z,100435.56
2022-07-29T19:46:24.496Z,100434.44
2022-07-29T19:48:54.008Z,100434.53
2022-07-29T19:51:23.786Z,100429.34
2022-07-29T19:53:52.737Z,100432.72
2022-07-29T19:56:20.726Z,100432.59
2022-07-29T19:58:49.347Z,100429.53
2022-07-29T20:01:17.393Z,100447.28
2022-07-29T20:03:46.944Z,100438.22
2022-07-29T20:06:14.885Z,100441.63
2022-07-29T20:08:42.797Z,100452.19
2022-07-29T20:11:11.335Z,100443.69
2022-07-29T20:13:39.494Z,100450.34
2022-07-29T20:16:08.615Z,100438.81
2022-07-29T20:18:36.938Z,100446.97
2022-07-29T20:21:05.008Z,100450.75
2022-07-29T20:23:33.399Z,100456.38
2022-07-29T20:26:03.450Z,100456.84
2022-07-29T20:28:33.051Z,100468.03
2022-07-29T20:31:01.410Z,100462.53
2022-07-29T20:33:29.415Z,100468.53
2022-07-29T20:38:42.880Z,100468.44
2022-07-29T20:41:10.955Z,100475.25
2022-07-29T20:43:39.127Z,100478.69
2022-07-29T20:46:07.641Z,100478.88
2022-07-29T20:48:35.652Z,100480.81
2022-07-29T20:51:22.419Z,100484.91
2022-07-29T20:53:50.819Z,100493.75
2022-07-29T20:56:18.855Z,100490.78
2022-07-29T20:58:46.804Z,100496.41
2022-07-29T21:01:15.192Z,100499.97
2022-07-29T21:03:43.250Z,100495.66
2022-07-29T21:06:11.780Z,100496.53
2022-07-29T21:08:40.230Z,100502.72
2022-07-29T21:11:08.498Z,100496.41
2022-07-29T21:13:38.771Z,100500.47
2022-07-29T21:16:14.819Z,100506.84
2022-07-29T21:18:47.088Z,100509.97
2022-07-29T21:21:16.606Z,100509.81
2022-07-29T21:23:46.202Z,100511.78
2022-07-29T21:26:14.512Z,100509.34
2022-07-29T21:28:43.841Z,100518.00
2022-07-29T21:31:15.285Z,100524.09
2022-07-29T21:33:46.164Z,100510.47
2022-07-29T21:39:07.353Z,100521.44
2022-07-29T21:41:35.356Z,100527.28
2022-07-29T21:44:03.269Z,100526.47
2022-07-29T21:46:31.641Z,100530.50
2022-07-29T21:48:59.640Z,100531.87
2022-07-29T21:51:27.705Z,100524.38
2022-07-29T21:53:56.082Z,100527.16
2022-07-29T21:56:27.459Z,100522.13
2022-07-29T21:58:56.529Z,100526.16
2022-07-29T22:01:24.961Z,100533.69
2022-07-29T22:04:11.945Z,100531.91
2022-07-29T22:06:40.164Z,100542.50
2022-07-29T22:09:08.484Z,100545.44
2022-07-29T22:11:37.157Z,100541.38
2022-07-29T22:14:05.808Z,100547.41
2022-07-29T22:16:34.419Z,100544.59
2022-07-29T22:19:04.152Z,100550.59
2022-07-29T22:21:32.303Z,100549.06
2022-07-29T22:24:01.974Z,100549.91
2022-07-29T22:26:33.050Z,100544.34
2022-07-29T22:29:01.324Z,100536.19
2022-07-29T22:31:29.293Z,100546.78
2022-07-29T22:33:57.296Z,100546.59
2022-07-29T22:36:26.514Z,100542.81
2022-07-29T22:38:54.367Z,100545.53
2022-07-29T22:41:22.324Z,100556.25
2022-07-29T22:43:50.635Z,100561.31
2022-07-29T22:46:18.600Z,100553.28
2022-07-29T22:48:46.548Z,100566.84
2022-07-29T22:51:14.948Z,100564.41
2022-07-29T22:53:42.771Z,100568.66
2022-07-29T22:56:10.634Z,100573.94
2022-07-29T22:58:39.009Z,100573.00
2022-07-29T23:01:06.936Z,100573.25
2022-07-29T23:03:35.055Z,100571.56
2022-07-29T23:06:03.525Z,100581.19
2022-07-29T23:08:31.686Z,100586.41
2022-07-29T23:10:59.678Z,100579.69
2022-07-29T23:13:27.992Z,100580.25
2022-07-29T23:15:55.884Z,100583.50
2022-07-29T23:18:23.785Z,100587.88
2022-07-29T23:20:52.157Z,100594.53
2022-07-29T23:23:20.303Z,100595.88
2022-07-29T23:25:48.167Z,100592.91
2022-07-29T23:28:18.166Z,100591.12
2022-07-29T23:30:46.083Z,100593.84
2022-07-29T23:33:13.945Z,100584.34
2022-07-29T23:35:42.241Z,100599.94
2022-07-29T23:38:10.185Z,100594.16
2022-07-29T23:40:38.194Z,100589.06
2022-07-29T23:43:08.797Z,100601.34
2022-07-29T23:45:44.556Z,100600.03
2022-07-29T23:48:14.864Z,100598.53
2022-07-29T23:50:42.924Z,100602.72
2022-07-29T23:53:12.391Z,100594.50
2022-07-29T23:55:40.696Z,100596.94
2022-07-29T23:58:08.535Z,100600.75
